createdAt,value
2018-03-29T00:06:45.744Z,0.8
2018-03-29T00:17:31.385Z,0.8
2018-03-29T00:27:42.851Z,1.0
2018-03-29T00:37:56.775Z,1.8
2018-03-29T00:48:10.798Z,1.6
2018-03-29T00:58:22.481Z,0.7
2018-03-29T01:08:37.616Z,0.6
2018-03-29T01:18:48.810Z,0.6
2018-03-29T01:29:33.767Z,1.4
2018-03-29T01:39:48.189Z,0.7
2018-03-29T01:50:02.661Z,0.6
2018-03-29T02:00:16.402Z,0.7
2018-03-29T02:10:30.695Z,0.5
2018-03-29T02:20:44.966Z,1.8
2018-03-29T02:30:59.138Z,0.5
2018-03-29T02:41:10.415Z,1.3
2018-03-29T02:51:24.532Z,0.9
2018-03-29T03:01:36.259Z,1.0
2018-03-29T03:11:55.538Z,4.1
2018-03-29T03:22:09.588Z,0.7
2018-03-29T03:32:54.983Z,2.4
2018-03-29T03:43:08.653Z,1.3
2018-03-29T03:53:22.642Z,0.9
2018-03-29T04:04:07.147Z,2.3
2018-03-29T04:14:20.587Z,2.2
2018-03-29T04:24:34.128Z,1.2
2018-03-29T04:34:48.526Z,1.5
2018-03-29T04:45:14.223Z,0.9
2018-03-29T04:55:27.855Z,3.9
2018-03-29T05:05:39.145Z,0.9
2018-03-29T05:15:53.783Z,3.8
2018-03-29T05:26:39.219Z,3.2
2018-03-29T05:36:53.755Z,3.2
2018-03-29T05:47:07.979Z,1.8
2018-03-29T05:57:54.495Z,2.8
2018-03-29T06:08:08.548Z,5.4
2018-03-29T06:18:22.083Z,5.1
2018-03-29T06:29:07.387Z,4.9
2018-03-29T06:39:21.118Z,3.6
2018-03-29T06:49:32.750Z,3.9
2018-03-29T06:59:46.657Z,7.2
2018-03-29T07:10:01.115Z,4.3
2018-03-29T07:20:46.203Z,6.6
2018-03-29T07:30:57.887Z,6.1
2018-03-29T07:41:09.251Z,2.7
2018-03-29T07:51:23.092Z,5.9
2018-03-29T08:02:08.072Z,3.9
2018-03-29T08:12:22.657Z,6.7
2018-03-29T08:23:08.253Z,10.3
2018-03-29T08:33:53.685Z,6.1
2018-03-29T08:44:38.282Z,5.3
2018-03-29T08:55:02.969Z,8.9
2018-03-29T09:05:16.675Z,2.8
2018-03-29T09:16:02.486Z,8.9
2018-03-29T09:27:08.641Z,11.7
2018-03-29T09:38:07.053Z,6.8
2018-03-29T09:48:34.033Z,5.4
2018-03-29T10:09:03.916Z,5.4
2018-03-29T10:19:18.481Z,4.0
2018-03-29T10:30:29.279Z,9.0
2018-03-29T10:41:14.668Z,7.5
2018-03-29T10:52:03.277Z,6.1
2018-03-29T11:02:17.004Z,9.7
2018-03-29T11:23:11.603Z,6.4
2018-03-29T11:33:37.711Z,1.2
2018-03-29T11:44:01.786Z,5.2
2018-03-29T11:54:58.765Z,9.6
2018-03-29T12:15:43.527Z,4.3
2018-03-29T12:26:35.189Z,5.9
2018-03-29T12:36:58.742Z,5.8
2018-03-29T12:47:28.237Z,3.3
2018-03-29T12:58:21.505Z,3.7
2018-03-29T13:19:04.595Z,3.7
2018-03-29T13:50:28.722Z,3.0
2018-03-29T14:00:40.153Z,2.5
2018-03-29T14:10:54.052Z,2.6
2018-03-29T14:21:05.803Z,4.5
2018-03-29T14:31:17.945Z,3.2
2018-03-29T14:41:32.057Z,3.1
2018-03-29T15:02:02.578Z,1.5
2018-03-29T15:12:13.482Z,1.2
2018-03-29T15:22:30.515Z,2.4
2018-03-29T15:32:47.582Z,2.4
2018-03-29T15:43:06.814Z,2.4
2018-03-29T15:53:27.820Z,4.6
2018-03-29T16:14:02.915Z,1.2
2018-03-29T16:24:14.808Z,2.2
2018-03-29T16:34:28.952Z,1.5
2018-03-29T16:44:42.740Z,4.2
2018-03-29T16:54:56.009Z,3.6
2018-03-29T17:05:23.692Z,1.7
2018-03-29T17:15:37.526Z,2.2
2018-03-29T17:25:52.298Z,3.1
2018-03-29T17:36:07.662Z,2.1
2018-03-29T17:47:02.872Z,4.5
2018-03-29T17:57:18.923Z,1.9
2018-03-29T18:07:33.522Z,2.6
2018-03-29T18:18:23.032Z,5.4
2018-03-29T18:29:58.158Z,6.2
